sensor_id;sensor_type;location;lat;lon;timestamp;P1;durP1;ratioP1;P2;durP2;ratioP2
16502;SDS011;53067;48.114;11.694;2022-07-29T00:00:32;1.57;;;1.47;;
16502;SDS011;53067;48.114;11.694;2022-07-29T00:03:00;1.40;;;1.40;;
16502;SDS011;53067;48.114;11.694;2022-07-29T00:05:28;1.17;;;1.10;;
16502;SDS011;53067;48.114;11.694;2022-07-29T00:07:55;1.37;;;1.00;;
16502;SDS011;53067;48.114;11.694;2022-07-29T00:10:23;1.77;;;1.20;;
16502;SDS011;53067;48.114;11.694;2022-07-29T00:12:50;1.20;;;1.20;;
16502;SDS011;53067;48.114;11.694;2022-07-29T00:15:18;1.35;;;1.25;;
16502;SDS011;53067;48.114;11.694;2022-07-29T00:17:46;1.98;;;1.10;;
16502;SDS011;53067;48.114;11.694;2022-07-29T00:20:13;1.17;;;0.90;;
16502;SDS011;53067;48.114;11.694;2022-07-29T00:22:41;0.90;;;0.90;;
16502;SDS011;53067;48.114;11.694;2022-07-29T00:25:08;1.10;;;1.10;;
16502;SDS011;53067;48.114;11.694;2022-07-29T00:27:36;2.17;;;1.20;;
16502;SDS011;53067;48.114;11.694;2022-07-29T00:30:04;1.00;;;1.00;;
16502;SDS011;53067;48.114;11.694;2022-07-29T00:32:33;1.00;;;1.00;;
16502;SDS011;53067;48.114;11.694;2022-07-29T00:35:01;0.98;;;0.98;;
16502;SDS011;53067;48.114;11.694;2022-07-29T00:37:55;1.02;;;1.02;;
16502;SDS011;53067;48.114;11.694;2022-07-29T00:40:23;1.12;;;1.10;;
16502;SDS011;53067;48.114;11.694;2022-07-29T00:42:51;1.07;;;1.07;;
16502;SDS011;53067;48.114;11.694;2022-07-29T00:45:19;1.30;;;1.30;;
16502;SDS011;53067;48.114;11.694;2022-07-29T00:47:47;1.15;;;1.15;;
16502;SDS011;53067;48.114;11.694;2022-07-29T00:50:15;1.00;;;1.00;;
16502;SDS011;53067;48.114;11.694;2022-07-29T00:52:44;1.05;;;1.05;;
16502;SDS011;53067;48.114;11.694;2022-07-29T00:55:14;1.30;;;1.30;;
16502;SDS011;53067;48.114;11.694;2022-07-29T00:57:42;1.32;;;1.00;;
16502;SDS011;53067;48.114;11.694;2022-07-29T01:00:17;1.70;;;1.60;;
16502;SDS011;53067;48.114;11.694;2022-07-29T01:02:43;1.47;;;1.12;;
16502;SDS011;53067;48.114;11.694;2022-07-29T01:05:12;1.10;;;1.10;;
16502;SDS011;53067;48.114;11.694;2022-07-29T01:07:41;1.20;;;1.20;;
16502;SDS011;53067;48.114;11.694;2022-07-29T01:10:09;1.12;;;1.12;;
16502;SDS011;53067;48.114;11.694;2022-07-29T01:12:39;1.30;;;1.20;;
16502;SDS011;53067;48.114;11.694;2022-07-29T01:15:07;1.30;;;1.22;;
16502;SDS011;53067;48.114;11.694;2022-07-29T01:17:50;1.57;;;1.20;;
16502;SDS011;53067;48.114;11.694;2022-07-29T01:29:05;1.10;;;1.10;;
16502;SDS011;53067;48.114;11.694;2022-07-29T01:34:27;1.40;;;1.30;;
16502;SDS011;53067;48.114;11.694;2022-07-29T01:36:58;1.27;;;1.12;;
16502;SDS011;53067;48.114;11.694;2022-07-29T01:39:43;1.32;;;1.30;;
16502;SDS011;53067;48.114;11.694;2022-07-29T01:42:15;1.02;;;1.02;;
16502;SDS011;53067;48.114;11.694;2022-07-29T01:50:34;1.32;;;1.32;;
16502;SDS011;53067;48.114;11.694;2022-07-29T01:55:57;1.40;;;1.30;;
16502;SDS011;53067;48.114;11.694;2022-07-29T01:58:28;1.37;;;1.37;;
16502;SDS011;53067;48.114;11.694;2022-07-29T02:00:58;1.20;;;1.20;;
16502;SDS011;53067;48.114;11.694;2022-07-29T02:03:28;1.42;;;1.25;;
16502;SDS011;53067;48.114;11.694;2022-07-29T02:05:58;1.20;;;1.20;;
16502;SDS011;53067;48.114;11.694;2022-07-29T02:08:28;1.12;;;1.12;;
16502;SDS011;53067;48.114;11.694;2022-07-29T02:10:57;1.12;;;1.12;;
16502;SDS011;53067;48.114;11.694;2022-07-29T02:13:27;2.20;;;1.30;;
16502;SDS011;53067;48.114;11.694;2022-07-29T02:15:57;1.87;;;1.50;;
16502;SDS011;53067;48.114;11.694;2022-07-29T02:18:27;1.27;;;1.17;;
16502;SDS011;53067;48.114;11.694;2022-07-29T02:20:57;1.27;;;1.17;;
16502;SDS011;53067;48.114;11.694;2022-07-29T02:23:26;1.32;;;1.30;;
16502;SDS011;53067;48.114;11.694;2022-07-29T02:26:14;1.37;;;1.27;;
16502;SDS011;53067;48.114;11.694;2022-07-29T02:28:43;1.42;;;1.32;;
16502;SDS011;53067;48.114;11.694;2022-07-29T02:31:12;1.27;;;1.17;;
16502;SDS011;53067;48.114;11.694;2022-07-29T02:33:41;1.82;;;1.32;;
16502;SDS011;53067;48.114;11.694;2022-07-29T02:36:09;1.40;;;1.17;;
16502;SDS011;53067;48.114;11.694;2022-07-29T02:38:37;1.30;;;1.30;;
16502;SDS011;53067;48.114;11.694;2022-07-29T02:41:20;1.50;;;1.40;;
16502;SDS011;53067;48.114;11.694;2022-07-29T02:43:57;1.17;;;1.17;;
16502;SDS011;53067;48.114;11.694;2022-07-29T02:46:34;1.10;;;1.10;;
16502;SDS011;53067;48.114;11.694;2022-07-29T02:49:08;1.37;;;1.37;;
16502;SDS011;53067;48.114;11.694;2022-07-29T02:51:55;1.30;;;1.20;;
16502;SDS011;53067;48.114;11.694;2022-07-29T02:54:54;1.37;;;1.37;;
16502;SDS011;53067;48.114;11.694;2022-07-29T02:57:28;1.47;;;1.20;;
16502;SDS011;53067;48.114;11.694;2022-07-29T02:59:57;1.45;;;1.37;;
16502;SDS011;53067;48.114;11.694;2022-07-29T03:02:28;2.17;;;1.30;;
16502;SDS011;53067;48.114;11.694;2022-07-29T03:04:59;1.10;;;1.10;;
16502;SDS011;53067;48.114;11.694;2022-07-29T03:07:29;1.50;;;1.40;;
16502;SDS011;53067;48.114;11.694;2022-07-29T03:09:58;1.37;;;1.30;;
16502;SDS011;53067;48.114;11.694;2022-07-29T03:12:26;1.10;;;1.10;;
16502;SDS011;53067;48.114;11.694;2022-07-29T03:14:55;1.35;;;1.35;;
16502;SDS011;53067;48.114;11.694;2022-07-29T03:17:24;1.10;;;1.10;;
16502;SDS011;53067;48.114;11.694;2022-07-29T03:19:52;1.10;;;1.10;;
16502;SDS011;53067;48.114;11.694;2022-07-29T03:22:19;1.57;;;1.47;;
16502;SDS011;53067;48.114;11.694;2022-07-29T03:24:47;1.45;;;1.45;;
16502;SDS011;53067;48.114;11.694;2022-07-29T03:27:15;1.95;;;1.45;;
16502;SDS011;53067;48.114;11.694;2022-07-29T03:29:42;1.12;;;1.12;;
16502;SDS011;53067;48.114;11.694;2022-07-29T03:32:10;1.20;;;1.20;;
16502;SDS011;53067;48.114;11.694;2022-07-29T03:34:38;1.12;;;1.12;;
16502;SDS011;53067;48.114;11.694;2022-07-29T03:37:05;1.47;;;1.40;;
16502;SDS011;53067;48.114;11.694;2022-07-29T03:39:35;1.50;;;1.40;;
16502;SDS011;53067;48.114;11.694;2022-07-29T03:42:03;1.30;;;1.30;;
16502;SDS011;53067;48.114;11.694;2022-07-29T03:44:33;1.47;;;1.37;;
16502;SDS011;53067;48.114;11.694;2022-07-29T03:47:03;1.37;;;1.37;;
16502;SDS011;53067;48.114;11.694;2022-07-29T03:49:34;1.32;;;1.32;;
16502;SDS011;53067;48.114;11.694;2022-07-29T03:52:04;1.25;;;1.25;;
16502;SDS011;53067;48.114;11.694;2022-07-29T03:54:32;1.60;;;1.60;;
16502;SDS011;53067;48.114;11.694;2022-07-29T03:59:48;1.52;;;1.52;;
16502;SDS011;53067;48.114;11.694;2022-07-29T04:02:17;1.45;;;1.35;;
16502;SDS011;53067;48.114;11.694;2022-07-29T04:05:11;1.50;;;1.40;;
16502;SDS011;53067;48.114;11.694;2022-07-29T04:07:38;1.30;;;1.30;;
16502;SDS011;53067;48.114;11.694;2022-07-29T04:10:07;1.67;;;1.57;;
16502;SDS011;53067;48.114;11.694;2022-07-29T04:12:55;1.52;;;1.42;;
16502;SDS011;53067;48.114;11.694;2022-07-29T04:15:22;3.02;;;1.47;;
16502;SDS011;53067;48.114;11.694;2022-07-29T04:17:50;1.70;;;1.60;;
16502;SDS011;53067;48.114;11.694;2022-07-29T04:20:18;2.92;;;1.60;;
16502;SDS011;53067;48.114;11.694;2022-07-29T04:22:45;1.45;;;1.40;;
16502;SDS011;53067;48.114;11.694;2022-07-29T04:25:13;1.75;;;1.40;;
16502;SDS011;53067;48.114;11.694;2022-07-29T04:27:40;1.52;;;1.42;;
16502;SDS011;53067;48.114;11.694;2022-07-29T04:30:09;1.65;;;1.55;;
16502;SDS011;53067;48.114;11.694;2022-07-29T04:32:38;1.70;;;1.60;;
16502;SDS011;53067;48.114;11.694;2022-07-29T04:35:06;1.62;;;1.52;;
16502;SDS011;53067;48.114;11.694;2022-07-29T04:37:34;1.60;;;1.50;;
16502;SDS011;53067;48.114;11.694;2022-07-29T04:40:01;1.40;;;1.40;;
16502;SDS011;53067;48.114;11.694;2022-07-29T04:42:29;1.67;;;1.57;;
16502;SDS011;53067;48.114;11.694;2022-07-29T04:44:57;1.80;;;1.70;;
16502;SDS011;53067;48.114;11.694;2022-07-29T04:47:24;4.47;;;1.85;;
16502;SDS011;53067;48.114;11.694;2022-07-29T04:49:52;1.67;;;1.57;;
16502;SDS011;53067;48.114;11.694;2022-07-29T04:52:19;1.75;;;1.60;;
16502;SDS011;53067;48.114;11.694;2022-07-29T04:54:48;2.00;;;1.90;;
16502;SDS011;53067;48.114;11.694;2022-07-29T04:57:16;1.80;;;1.70;;
16502;SDS011;53067;48.114;11.694;2022-07-29T04:59:44;1.90;;;1.80;;
16502;SDS011;53067;48.114;11.694;2022-07-29T05:02:11;1.87;;;1.70;;
16502;SDS011;53067;48.114;11.694;2022-07-29T05:04:40;2.10;;;1.65;;
16502;SDS011;53067;48.114;11.694;2022-07-29T05:07:08;1.90;;;1.80;;
16502;SDS011;53067;48.114;11.694;2022-07-29T05:09:35;2.00;;;1.90;;
16502;SDS011;53067;48.114;11.694;2022-07-29T05:12:03;2.00;;;1.90;;
16502;SDS011;53067;48.114;11.694;2022-07-29T05:14:30;2.00;;;1.90;;
16502;SDS011;53067;48.114;11.694;2022-07-29T05:16:58;1.90;;;1.80;;
16502;SDS011;53067;48.114;11.694;2022-07-29T05:19:26;2.05;;;1.72;;
16502;SDS011;53067;48.114;11.694;2022-07-29T05:21:53;1.72;;;1.62;;
16502;SDS011;53067;48.114;11.694;2022-07-29T05:24:21;1.62;;;1.52;;
16502;SDS011;53067;48.114;11.694;2022-07-29T05:26:48;1.87;;;1.77;;
16502;SDS011;53067;48.114;11.694;2022-07-29T05:29:16;1.77;;;1.67;;
16502;SDS011;53067;48.114;11.694;2022-07-29T05:31:43;1.70;;;1.60;;
16502;SDS011;53067;48.114;11.694;2022-07-29T05:34:11;1.75;;;1.65;;
16502;SDS011;53067;48.114;11.694;2022-07-29T05:36:38;2.02;;;1.85;;
16502;SDS011;53067;48.114;11.694;2022-07-29T05:39:06;1.95;;;1.80;;
16502;SDS011;53067;48.114;11.694;2022-07-29T05:41:34;1.90;;;1.80;;
16502;SDS011;53067;48.114;11.694;2022-07-29T05:44:02;1.87;;;1.77;;
16502;SDS011;53067;48.114;11.694;2022-07-29T05:46:29;1.85;;;1.75;;
16502;SDS011;53067;48.114;11.694;2022-07-29T05:48:57;1.65;;;1.60;;
16502;SDS011;53067;48.114;11.694;2022-07-29T05:51:24;1.82;;;1.75;;
16502;SDS011;53067;48.114;11.694;2022-07-29T05:53:52;2.10;;;2.00;;
16502;SDS011;53067;48.114;11.694;2022-07-29T05:56:19;2.02;;;1.92;;
16502;SDS011;53067;48.114;11.694;2022-07-29T05:58:47;2.20;;;2.10;;
16502;SDS011;53067;48.114;11.694;2022-07-29T06:01:14;2.00;;;1.90;;
16502;SDS011;53067;48.114;11.694;2022-07-29T06:03:42;2.10;;;2.00;;
16502;SDS011;53067;48.114;11.694;2022-07-29T06:06:09;2.05;;;1.95;;
16502;SDS011;53067;48.114;11.694;2022-07-29T06:08:37;2.10;;;2.00;;
16502;SDS011;53067;48.114;11.694;2022-07-29T06:11:06;2.85;;;2.50;;
16502;SDS011;53067;48.114;11.694;2022-07-29T06:13:35;2.35;;;2.17;;
16502;SDS011;53067;48.114;11.694;2022-07-29T06:16:03;3.00;;;2.40;;
16502;SDS011;53067;48.114;11.694;2022-07-29T06:18:31;2.15;;;2.05;;
16502;SDS011;53067;48.114;11.694;2022-07-29T06:20:58;2.15;;;2.00;;
16502;SDS011;53067;48.114;11.694;2022-07-29T06:23:26;2.52;;;1.80;;
16502;SDS011;53067;48.114;11.694;2022-07-29T06:25:53;3.40;;;2.00;;
16502;SDS011;53067;48.114;11.694;2022-07-29T06:28:21;2.80;;;1.87;;
16502;SDS011;53067;48.114;11.694;2022-07-29T06:30:48;2.52;;;1.95;;
16502;SDS011;53067;48.114;11.694;2022-07-29T06:33:16;2.87;;;2.22;;
16502;SDS011;53067;48.114;11.694;2022-07-29T06:35:45;2.15;;;1.98;;
16502;SDS011;53067;48.114;11.694;2022-07-29T06:38:13;2.20;;;2.00;;
16502;SDS011;53067;48.114;11.694;2022-07-29T06:40:41;2.50;;;2.25;;
16502;SDS011;53067;48.114;11.694;2022-07-29T06:43:32;1.92;;;1.62;;
16502;SDS011;53067;48.114;11.694;2022-07-29T06:46:03;2.10;;;2.00;;
16502;SDS011;53067;48.114;11.694;2022-07-29T06:48:33;1.70;;;1.60;;
16502;SDS011;53067;48.114;11.694;2022-07-29T06:51:03;1.55;;;1.45;;
16502;SDS011;53067;48.114;11.694;2022-07-29T06:53:32;1.90;;;1.80;;
16502;SDS011;53067;48.114;11.694;2022-07-29T06:56:01;1.40;;;1.40;;
16502;SDS011;53067;48.114;11.694;2022-07-29T06:58:30;2.62;;;1.60;;
16502;SDS011;53067;48.114;11.694;2022-07-29T07:00:58;1.85;;;1.75;;
16502;SDS011;53067;48.114;11.694;2022-07-29T07:03:29;2.00;;;1.80;;
16502;SDS011;53067;48.114;11.694;2022-07-29T07:05:57;2.00;;;1.90;;
16502;SDS011;53067;48.114;11.694;2022-07-29T07:08:24;1.90;;;1.80;;
16502;SDS011;53067;48.114;11.694;2022-07-29T07:10:52;1.90;;;1.80;;
16502;SDS011;53067;48.114;11.694;2022-07-29T07:13:20;1.52;;;1.42;;
16502;SDS011;53067;48.114;11.694;2022-07-29T07:15:48;1.85;;;1.75;;
16502;SDS011;53067;48.114;11.694;2022-07-29T07:18:17;1.80;;;1.70;;
16502;SDS011;53067;48.114;11.694;2022-07-29T07:20:45;2.00;;;1.85;;
16502;SDS011;53067;48.114;11.694;2022-07-29T07:23:13;1.98;;;1.80;;
16502;SDS011;53067;48.114;11.694;2022-07-29T07:25:41;2.12;;;1.85;;
16502;SDS011;53067;48.114;11.694;2022-07-29T07:28:08;1.80;;;1.70;;
16502;SDS011;53067;48.114;11.694;2022-07-29T07:30:36;1.60;;;1.50;;
16502;SDS011;53067;48.114;11.694;2022-07-29T07:33:03;1.52;;;1.42;;
16502;SDS011;53067;48.114;11.694;2022-07-29T07:35:31;2.70;;;1.50;;
16502;SDS011;53067;48.114;11.694;2022-07-29T07:37:58;1.90;;;1.80;;
16502;SDS011;53067;48.114;11.694;2022-07-29T07:40:26;2.55;;;1.60;;
16502;SDS011;53067;48.114;11.694;2022-07-29T07:42:54;2.08;;;1.90;;
16502;SDS011;53067;48.114;11.694;2022-07-29T07:45:21;2.22;;;1.45;;
16502;SDS011;53067;48.114;11.694;2022-07-29T07:47:49;1.77;;;1.67;;
16502;SDS011;53067;48.114;11.694;2022-07-29T07:50:16;3.58;;;1.70;;
16502;SDS011;53067;48.114;11.694;2022-07-29T07:52:53;3.55;;;1.70;;
16502;SDS011;53067;48.114;11.694;2022-07-29T07:55:17;2.15;;;1.52;;
16502;SDS011;53067;48.114;11.694;2022-07-29T07:57:45;1.42;;;1.32;;
16502;SDS011;53067;48.114;11.694;2022-07-29T08:00:13;1.70;;;1.60;;
16502;SDS011;53067;48.114;11.694;2022-07-29T08:02:42;1.62;;;1.52;;
16502;SDS011;53067;48.114;11.694;2022-07-29T08:05:10;1.67;;;1.57;;
16502;SDS011;53067;48.114;11.694;2022-07-29T08:07:40;1.80;;;1.70;;
16502;SDS011;53067;48.114;11.694;2022-07-29T08:10:08;1.40;;;1.40;;
16502;SDS011;53067;48.114;11.694;2022-07-29T08:12:36;1.70;;;1.55;;
16502;SDS011;53067;48.114;11.694;2022-07-29T08:15:04;2.83;;;1.70;;
16502;SDS011;53067;48.114;11.694;2022-07-29T08:17:33;2.92;;;1.40;;
16502;SDS011;53067;48.114;11.694;2022-07-29T08:20:01;1.40;;;1.40;;
16502;SDS011;53067;48.114;11.694;2022-07-29T08:22:29;1.65;;;1.50;;
16502;SDS011;53067;48.114;11.694;2022-07-29T08:24:56;1.67;;;1.52;;
16502;SDS011;53067;48.114;11.694;2022-07-29T08:27:24;1.75;;;1.65;;
16502;SDS011;53067;48.114;11.694;2022-07-29T08:29:53;1.90;;;1.80;;
16502;SDS011;53067;48.114;11.694;2022-07-29T08:32:21;1.60;;;1.50;;
16502;SDS011;53067;48.114;11.694;2022-07-29T08:34:49;2.10;;;1.60;;
16502;SDS011;53067;48.114;11.694;2022-07-29T08:37:16;1.47;;;1.37;;
16502;SDS011;53067;48.114;11.694;2022-07-29T08:39:44;2.17;;;1.47;;
16502;SDS011;53067;48.114;11.694;2022-07-29T08:42:11;1.50;;;1.50;;
16502;SDS011;53067;48.114;11.694;2022-07-29T08:44:39;2.15;;;1.85;;
16502;SDS011;53067;48.114;11.694;2022-07-29T08:47:07;1.80;;;1.70;;
16502;SDS011;53067;48.114;11.694;2022-07-29T08:49:35;1.72;;;1.60;;
16502;SDS011;53067;48.114;11.694;2022-07-29T08:52:02;1.75;;;1.60;;
16502;SDS011;53067;48.114;11.694;2022-07-29T08:54:30;2.37;;;1.60;;
16502;SDS011;53067;48.114;11.694;2022-07-29T08:56:58;1.82;;;1.72;;
16502;SDS011;53067;48.114;11.694;2022-07-29T08:59:27;1.82;;;1.72;;
16502;SDS011;53067;48.114;11.694;2022-07-29T09:01:57;1.80;;;1.70;;
16502;SDS011;53067;48.114;11.694;2022-07-29T09:04:30;1.75;;;1.65;;
16502;SDS011;53067;48.114;11.694;2022-07-29T09:06:57;2.12;;;1.95;;
16502;SDS011;53067;48.114;11.694;2022-07-29T09:09:27;1.90;;;1.80;;
16502;SDS011;53067;48.114;11.694;2022-07-29T09:11:54;3.27;;;2.17;;
16502;SDS011;53067;48.114;11.694;2022-07-29T09:14:22;1.98;;;1.82;;
16502;SDS011;53067;48.114;11.694;2022-07-29T09:16:51;2.33;;;2.10;;
16502;SDS011;53067;48.114;11.694;2022-07-29T09:19:24;3.80;;;1.90;;
16502;SDS011;53067;48.114;11.694;2022-07-29T09:21:54;2.12;;;1.95;;
16502;SDS011;53067;48.114;11.694;2022-07-29T09:24:36;2.22;;;2.10;;
16502;SDS011;53067;48.114;11.694;2022-07-29T09:26:54;2.10;;;2.00;;
16502;SDS011;53067;48.114;11.694;2022-07-29T09:29:22;2.98;;;2.30;;
16502;SDS011;53067;48.114;11.694;2022-07-29T09:31:51;2.00;;;1.90;;
16502;SDS011;53067;48.114;11.694;2022-07-29T09:34:24;2.20;;;2.10;;
16502;SDS011;53067;48.114;11.694;2022-07-29T09:36:51;2.12;;;2.02;;
16502;SDS011;53067;48.114;11.694;2022-07-29T09:39:53;2.25;;;2.10;;
16502;SDS011;53067;48.114;11.694;2022-07-29T09:41:57;2.67;;;2.50;;
16502;SDS011;53067;48.114;11.694;2022-07-29T09:44:26;3.20;;;2.58;;
16502;SDS011;53067;48.114;11.694;2022-07-29T09:46:59;2.50;;;2.30;;
16502;SDS011;53067;48.114;11.694;2022-07-29T09:52:24;2.55;;;2.25;;
16502;SDS011;53067;48.114;11.694;2022-07-29T09:55:09;2.50;;;2.27;;
16502;SDS011;53067;48.114;11.694;2022-07-29T09:57:34;2.20;;;2.10;;
16502;SDS011;53067;48.114;11.694;2022-07-29T10:02:33;2.65;;;2.25;;
16502;SDS011;53067;48.114;11.694;2022-07-29T10:05:02;3.20;;;2.17;;
16502;SDS011;53067;48.114;11.694;2022-07-29T10:10:19;3.10;;;2.05;;
16502;SDS011;53067;48.114;11.694;2022-07-29T10:12:54;2.92;;;2.52;;
16502;SDS011;53067;48.114;11.694;2022-07-29T10:15:24;2.20;;;2.10;;
16502;SDS011;53067;48.114;11.694;2022-07-29T10:17:54;2.20;;;2.10;;
16502;SDS011;53067;48.114;11.694;2022-07-29T10:20:23;4.45;;;2.50;;
16502;SDS011;53067;48.114;11.694;2022-07-29T10:22:51;2.42;;;2.22;;
16502;SDS011;53067;48.114;11.694;2022-07-29T10:25:19;2.30;;;2.20;;
16502;SDS011;53067;48.114;11.694;2022-07-29T10:27:48;2.20;;;2.10;;
16502;SDS011;53067;48.114;11.694;2022-07-29T10:30:19;4.05;;;2.05;;
16502;SDS011;53067;48.114;11.694;2022-07-29T10:32:51;2.50;;;2.17;;
16502;SDS011;53067;48.114;11.694;2022-07-29T10:35:33;2.10;;;2.00;;
16502;SDS011;53067;48.114;11.694;2022-07-29T10:43:54;2.50;;;2.33;;
16502;SDS011;53067;48.114;11.694;2022-07-29T10:46:24;3.92;;;2.80;;
16502;SDS011;53067;48.114;11.694;2022-07-29T10:49:12;2.70;;;2.50;;
16502;SDS011;53067;48.114;11.694;2022-07-29T10:59:52;2.55;;;2.45;;
16502;SDS011;53067;48.114;11.694;2022-07-29T11:07:36;2.35;;;2.22;;
16502;SDS011;53067;48.114;11.694;2022-07-29T11:15:13;2.70;;;2.50;;
16502;SDS011;53067;48.114;11.694;2022-07-29T11:23:20;2.65;;;2.45;;
16502;SDS011;53067;48.114;11.694;2022-07-29T11:29:02;2.40;;;2.30;;
16502;SDS011;53067;48.114;11.694;2022-07-29T11:31:40;2.40;;;2.30;;
16502;SDS011;53067;48.114;11.694;2022-07-29T11:34:19;2.90;;;2.70;;
16502;SDS011;53067;48.114;11.694;2022-07-29T11:39:40;2.55;;;2.35;;
16502;SDS011;53067;48.114;11.694;2022-07-29T11:48:01;3.90;;;2.42;;
16502;SDS011;53067;48.114;11.694;2022-07-29T11:50:15;3.58;;;2.52;;
16502;SDS011;53067;48.114;11.694;2022-07-29T11:52:45;4.12;;;2.60;;
16502;SDS011;53067;48.114;11.694;2022-07-29T11:55:15;2.70;;;2.50;;
16502;SDS011;53067;48.114;11.694;2022-07-29T11:57:47;2.80;;;2.60;;
16502;SDS011;53067;48.114;11.694;2022-07-29T12:00:23;2.62;;;2.42;;
16502;SDS011;53067;48.114;11.694;2022-07-29T12:02:58;2.65;;;2.55;;
16502;SDS011;53067;48.114;11.694;2022-07-29T12:05:31;3.60;;;2.80;;
16502;SDS011;53067;48.114;11.694;2022-07-29T12:08:04;3.22;;;2.35;;
16502;SDS011;53067;48.114;11.694;2022-07-29T12:10:37;2.65;;;2.45;;
16502;SDS011;53067;48.114;11.694;2022-07-29T12:13:04;2.12;;;2.02;;
16502;SDS011;53067;48.114;11.694;2022-07-29T12:15:33;2.33;;;2.20;;
16502;SDS011;53067;48.114;11.694;2022-07-29T12:18:10;2.40;;;2.20;;
16502;SDS011;53067;48.114;11.694;2022-07-29T12:20:39;2.25;;;2.15;;
16502;SDS011;53067;48.114;11.694;2022-07-29T12:23:08;2.60;;;2.40;;
16502;SDS011;53067;48.114;11.694;2022-07-29T12:25:38;3.05;;;2.75;;
16502;SDS011;53067;48.114;11.694;2022-07-29T12:28:08;2.17;;;2.08;;
16502;SDS011;53067;48.114;11.694;2022-07-29T12:30:42;5.37;;;2.10;;
16502;SDS011;53067;48.114;11.694;2022-07-29T12:33:12;2.33;;;2.17;;
16502;SDS011;53067;48.114;11.694;2022-07-29T12:35:42;2.50;;;2.30;;
16502;SDS011;53067;48.114;11.694;2022-07-29T12:38:11;2.37;;;2.15;;
16502;SDS011;53067;48.114;11.694;2022-07-29T12:40:40;2.37;;;2.25;;
16502;SDS011;53067;48.114;11.694;2022-07-29T12:43:10;2.40;;;2.00;;
16502;SDS011;53067;48.114;11.694;2022-07-29T12:45:41;2.90;;;2.70;;
16502;SDS011;53067;48.114;11.694;2022-07-29T12:48:13;3.17;;;2.37;;
16502;SDS011;53067;48.114;11.694;2022-07-29T12:50:58;2.65;;;2.22;;
16502;SDS011;53067;48.114;11.694;2022-07-29T12:53:27;2.60;;;2.40;;
16502;SDS011;53067;48.114;11.694;2022-07-29T12:55:56;2.47;;;2.37;;
16502;SDS011;53067;48.114;11.694;2022-07-29T13:01:03;2.70;;;2.52;;
16502;SDS011;53067;48.114;11.694;2022-07-29T13:03:49;2.85;;;2.20;;
16502;SDS011;53067;48.114;11.694;2022-07-29T13:06:29;2.40;;;2.20;;
16502;SDS011;53067;48.114;11.694;2022-07-29T13:11:33;2.80;;;2.10;;
16502;SDS011;53067;48.114;11.694;2022-07-29T13:14:02;2.10;;;2.00;;
16502;SDS011;53067;48.114;11.694;2022-07-29T13:16:31;2.77;;;2.58;;
16502;SDS011;53067;48.114;11.694;2022-07-29T13:19:08;2.60;;;2.50;;
16502;SDS011;53067;48.114;11.694;2022-07-29T13:21:38;4.45;;;2.70;;
16502;SDS011;53067;48.114;11.694;2022-07-29T13:24:06;9.23;;;2.77;;
16502;SDS011;53067;48.114;11.694;2022-07-29T13:26:34;2.75;;;2.55;;
16502;SDS011;53067;48.114;11.694;2022-07-29T13:29:03;2.60;;;2.40;;
16502;SDS011;53067;48.114;11.694;2022-07-29T13:31:31;4.53;;;2.90;;
16502;SDS011;53067;48.114;11.694;2022-07-29T13:33:58;2.45;;;2.25;;
16502;SDS011;53067;48.114;11.694;2022-07-29T13:36:26;3.65;;;2.50;;
16502;SDS011;53067;48.114;11.694;2022-07-29T13:38:53;2.58;;;2.37;;
16502;SDS011;53067;48.114;11.694;2022-07-29T13:41:21;2.52;;;2.30;;
16502;SDS011;53067;48.114;11.694;2022-07-29T13:43:49;2.75;;;2.20;;
16502;SDS011;53067;48.114;11.694;2022-07-29T13:46:16;3.25;;;2.60;;
16502;SDS011;53067;48.114;11.694;2022-07-29T13:48:44;2.40;;;2.27;;
16502;SDS011;53067;48.114;11.694;2022-07-29T13:51:11;2.58;;;2.42;;
16502;SDS011;53067;48.114;11.694;2022-07-29T13:53:39;3.17;;;2.55;;
16502;SDS011;53067;48.114;11.694;2022-07-29T13:56:06;2.65;;;2.50;;
16502;SDS011;53067;48.114;11.694;2022-07-29T13:58:34;3.37;;;2.27;;
16502;SDS011;53067;48.114;11.694;2022-07-29T14:01:01;2.58;;;2.37;;
16502;SDS011;53067;48.114;11.694;2022-07-29T14:03:29;3.17;;;2.77;;
16502;SDS011;53067;48.114;11.694;2022-07-29T14:05:57;2.70;;;2.50;;
16502;SDS011;53067;48.114;11.694;2022-07-29T14:08:25;2.70;;;2.50;;
16502;SDS011;53067;48.114;11.694;2022-07-29T14:10:53;3.00;;;2.80;;
16502;SDS011;53067;48.114;11.694;2022-07-29T14:13:20;3.00;;;2.70;;
16502;SDS011;53067;48.114;11.694;2022-07-29T14:15:48;2.62;;;2.52;;
16502;SDS011;53067;48.114;11.694;2022-07-29T14:18:15;2.72;;;2.52;;
16502;SDS011;53067;48.114;11.694;2022-07-29T14:20:43;2.67;;;2.47;;
16502;SDS011;53067;48.114;11.694;2022-07-29T14:23:10;3.20;;;3.00;;
16502;SDS011;53067;48.114;11.694;2022-07-29T14:25:38;2.75;;;2.55;;
16502;SDS011;53067;48.114;11.694;2022-07-29T14:28:05;2.77;;;2.58;;
16502;SDS011;53067;48.114;11.694;2022-07-29T14:30:33;2.85;;;2.50;;
16502;SDS011;53067;48.114;11.694;2022-07-29T14:33:00;3.02;;;2.75;;
16502;SDS011;53067;48.114;11.694;2022-07-29T14:35:28;2.67;;;2.52;;
16502;SDS011;53067;48.114;11.694;2022-07-29T14:37:56;2.55;;;2.35;;
16502;SDS011;53067;48.114;11.694;2022-07-29T14:40:24;3.02;;;2.70;;
16502;SDS011;53067;48.114;11.694;2022-07-29T14:42:51;2.45;;;2.35;;
16502;SDS011;53067;48.114;11.694;2022-07-29T14:45:19;3.12;;;2.42;;
16502;SDS011;53067;48.114;11.694;2022-07-29T14:47:46;2.58;;;2.30;;
16502;SDS011;53067;48.114;11.694;2022-07-29T14:50:15;2.85;;;2.52;;
16502;SDS011;53067;48.114;11.694;2022-07-29T14:52:44;2.50;;;2.30;;
16502;SDS011;53067;48.114;11.694;2022-07-29T14:55:12;2.90;;;2.72;;
16502;SDS011;53067;48.114;11.694;2022-07-29T14:57:39;2.33;;;2.22;;
16502;SDS011;53067;48.114;11.694;2022-07-29T15:00:07;2.85;;;2.50;;
16502;SDS011;53067;48.114;11.694;2022-07-29T15:02:36;2.50;;;2.40;;
16502;SDS011;53067;48.114;11.694;2022-07-29T15:05:04;2.80;;;2.60;;
16502;SDS011;53067;48.114;11.694;2022-07-29T15:07:32;2.42;;;2.33;;
16502;SDS011;53067;48.114;11.694;2022-07-29T15:09:59;2.30;;;2.10;;
16502;SDS011;53067;48.114;11.694;2022-07-29T15:12:28;2.27;;;2.05;;
16502;SDS011;53067;48.114;11.694;2022-07-29T15:14:55;2.20;;;2.02;;
16502;SDS011;53067;48.114;11.694;2022-07-29T15:17:23;2.17;;;2.02;;
16502;SDS011;53067;48.114;11.694;2022-07-29T15:19:50;2.50;;;2.30;;
16502;SDS011;53067;48.114;11.694;2022-07-29T15:22:18;2.20;;;2.10;;
16502;SDS011;53067;48.114;11.694;2022-07-29T15:24:45;2.33;;;2.10;;
16502;SDS011;53067;48.114;11.694;2022-07-29T15:27:14;2.37;;;2.27;;
16502;SDS011;53067;48.114;11.694;2022-07-29T15:29:41;2.35;;;2.25;;
16502;SDS011;53067;48.114;11.694;2022-07-29T15:32:10;3.90;;;2.22;;
16502;SDS011;53067;48.114;11.694;2022-07-29T15:34:37;2.30;;;2.20;;
16502;SDS011;53067;48.114;11.694;2022-07-29T15:37:05;2.50;;;2.30;;
16502;SDS011;53067;48.114;11.694;2022-07-29T15:39:33;2.75;;;2.17;;
16502;SDS011;53067;48.114;11.694;2022-07-29T15:42:00;2.40;;;2.30;;
16502;SDS011;53067;48.114;11.694;2022-07-29T15:44:30;2.72;;;2.50;;
16502;SDS011;53067;48.114;11.694;2022-07-29T15:46:58;3.20;;;2.98;;
16502;SDS011;53067;48.114;11.694;2022-07-29T15:49:29;2.60;;;2.40;;
16502;SDS011;53067;48.114;11.694;2022-07-29T15:51:58;2.87;;;2.25;;
16502;SDS011;53067;48.114;11.694;2022-07-29T15:54:28;3.52;;;2.42;;
16502;SDS011;53067;48.114;11.694;2022-07-29T15:56:56;2.65;;;2.55;;
16502;SDS011;53067;48.114;11.694;2022-07-29T15:59:24;2.60;;;2.40;;
16502;SDS011;53067;48.114;11.694;2022-07-29T16:01:51;2.70;;;2.50;;
16502;SDS011;53067;48.114;11.694;2022-07-29T16:04:19;3.67;;;2.72;;